createdAt,value
2023-04-18T00:00:15.342Z,8.89
2023-04-18T00:03:05.117Z,8.82
2023-04-18T00:05:53.252Z,8.80
2023-04-18T00:08:41.171Z,8.78
2023-04-18T00:11:31.494Z,8.77
2023-04-18T00:14:21.116Z,8.77
2023-04-18T00:17:11.644Z,8.74
2023-04-18T00:20:06.990Z,8.70
2023-04-18T00:22:55.065Z,8.67
2023-04-18T00:25:42.723Z,8.62
2023-04-18T00:28:30.157Z,8.63
2023-04-18T00:31:17.613Z,8.55
2023-04-18T00:34:05.327Z,8.48
2023-04-18T00:36:55.205Z,8.45
2023-04-18T00:39:44.721Z,8.48
2023-04-18T00:42:32.421Z,8.40
2023-04-18T00:45:20.921Z,8.44
2023-04-18T00:48:09.422Z,8.39
2023-04-18T00:50:58.274Z,8.42
2023-04-18T00:53:46.958Z,8.49
2023-04-18T00:56:35.160Z,8.42
2023-04-18T00:59:22.633Z,8.36
2023-04-18T01:02:13.683Z,8.35
2023-04-18T01:05:01.682Z,8.39
2023-04-18T01:07:52.302Z,8.39
2023-04-18T01:10:41.579Z,8.33
2023-04-18T01:13:36.237Z,8.31
2023-04-18T01:16:23.957Z,8.25
2023-04-18T01:19:11.683Z,8.19
2023-04-18T01:21:59.188Z,8.23
2023-04-18T01:24:48.629Z,8.24
2023-04-18T01:27:38.364Z,8.19
2023-04-18T01:30:26.328Z,8.26
2023-04-18T01:33:16.411Z,8.23
2023-04-18T01:36:04.263Z,8.22
2023-04-18T01:38:51.631Z,8.25
2023-04-18T01:41:41.290Z,8.16
2023-04-18T01:44:28.473Z,8.15
2023-04-18T01:47:15.866Z,8.16
2023-04-18T01:50:08.463Z,8.14
2023-04-18T01:52:56.283Z,8.07
2023-04-18T01:55:45.067Z,8.07
2023-04-18T01:58:33.832Z,8.02
2023-04-18T02:01:24.192Z,8.00
2023-04-18T02:04:14.172Z,7.97
2023-04-18T02:07:02.777Z,7.96
2023-04-18T02:09:52.435Z,7.93
2023-04-18T02:12:39.976Z,7.94
2023-04-18T02:15:28.421Z,7.92
2023-04-18T02:18:16.317Z,7.93
2023-04-18T02:21:03.909Z,7.88
2023-04-18T02:23:51.959Z,7.90
2023-04-18T02:26:40.338Z,7.83
2023-04-18T02:29:28.122Z,7.81
2023-04-18T02:32:19.856Z,7.76
2023-04-18T02:35:08.160Z,7.76
2023-04-18T02:37:55.503Z,7.67
2023-04-18T02:40:42.870Z,7.61
2023-04-18T02:43:30.243Z,7.69
2023-04-18T02:46:26.803Z,7.72
2023-04-18T02:49:15.809Z,7.69
2023-04-18T02:52:03.459Z,7.62
2023-04-18T02:54:50.793Z,7.64
2023-04-18T02:57:38.260Z,7.59
2023-04-18T03:00:26.122Z,7.57
2023-04-18T03:03:13.669Z,7.52
2023-04-18T03:06:02.572Z,7.51
2023-04-18T03:08:50.724Z,7.49
2023-04-18T03:11:38.129Z,7.47
2023-04-18T03:14:25.820Z,7.43
2023-04-18T03:17:13.303Z,7.42
2023-04-18T03:20:01.310Z,7.36
2023-04-18T03:22:49.944Z,7.31
2023-04-18T03:25:40.020Z,7.28
2023-04-18T03:28:29.619Z,7.27
2023-04-18T03:31:17.248Z,7.20
2023-04-18T03:34:07.626Z,7.16
2023-04-18T03:36:54.872Z,7.10
2023-04-18T03:39:43.688Z,7.05
2023-04-18T03:42:30.921Z,7.05
2023-04-18T03:45:18.278Z,6.96
2023-04-18T03:48:07.245Z,6.95
2023-04-18T03:50:54.492Z,6.97
2023-04-18T03:53:45.409Z,6.93
2023-04-18T03:56:34.090Z,6.96
2023-04-18T03:59:21.576Z,6.98
2023-04-18T04:02:11.315Z,7.04
2023-04-18T04:04:58.846Z,7.09
2023-04-18T04:07:46.065Z,7.12
2023-04-18T04:10:33.560Z,7.10
2023-04-18T04:13:22.329Z,7.03
2023-04-18T04:16:12.710Z,6.95
2023-04-18T04:19:00.126Z,6.89
2023-04-18T04:21:47.757Z,6.91
2023-04-18T04:24:35.425Z,6.97
2023-04-18T04:27:22.922Z,7.02
2023-04-18T04:30:13.549Z,7.05
2023-04-18T04:37:40.032Z,7.13
2023-04-18T04:40:27.324Z,7.15
2023-04-18T04:43:15.563Z,7.18
2023-04-18T04:46:07.497Z,7.15
2023-04-18T04:48:54.818Z,7.19
2023-04-18T04:51:43.018Z,7.21
2023-04-18T04:54:31.577Z,7.21
2023-04-18T04:57:21.457Z,7.22
2023-04-18T05:00:10.638Z,7.23
2023-04-18T05:03:02.346Z,7.21
2023-04-18T05:05:50.672Z,7.23
2023-04-18T05:08:39.919Z,7.18
2023-04-18T05:11:27.737Z,7.17
2023-04-18T05:14:16.078Z,7.15
2023-04-18T05:17:04.169Z,7.13
2023-04-18T05:19:53.108Z,7.10
2023-04-18T05:22:41.012Z,7.09
2023-04-18T05:25:31.812Z,7.08
2023-04-18T05:28:20.263Z,7.08
2023-04-18T05:31:09.462Z,7.10
2023-04-18T05:33:58.295Z,7.02
2023-04-18T05:36:54.167Z,7.13
2023-04-18T05:39:42.037Z,7.15
2023-04-18T05:42:32.592Z,7.21
2023-04-18T05:45:23.927Z,7.18
2023-04-18T05:48:16.063Z,7.24
2023-04-18T05:51:06.962Z,7.29
2023-04-18T05:54:09.744Z,7.36
2023-04-18T05:57:06.243Z,7.42
2023-04-18T05:59:59.603Z,7.40
2023-04-18T06:02:50.848Z,7.38
2023-04-18T06:05:41.243Z,7.44
2023-04-18T06:08:31.376Z,7.53
2023-04-18T06:11:22.833Z,7.79
2023-04-18T06:14:10.603Z,7.60
2023-04-18T06:16:58.238Z,7.64
2023-04-18T06:19:45.866Z,7.61
2023-04-18T06:22:37.311Z,7.51
2023-04-18T07:01:57.049Z,7.96
2023-04-18T07:04:44.918Z,8.06
2023-04-18T07:07:35.829Z,8.11
2023-04-18T07:10:25.683Z,8.07
2023-04-18T07:13:12.967Z,7.99
2023-04-18T07:16:04.334Z,8.00
2023-04-18T07:18:55.888Z,8.02
2023-04-18T07:21:46.027Z,8.00
2023-04-18T07:24:33.761Z,8.03
2023-04-18T07:27:24.287Z,8.17
2023-04-18T07:30:12.790Z,8.30
2023-04-18T07:33:00.276Z,8.17
2023-04-18T07:35:50.006Z,8.38
2023-04-18T07:38:37.408Z,8.56
2023-04-18T07:41:25.217Z,8.60
2023-04-18T07:44:12.872Z,8.73
2023-04-18T07:47:00.361Z,8.56
2023-04-18T07:49:47.595Z,8.34
2023-04-18T07:52:37.463Z,8.45
2023-04-18T07:55:26.529Z,8.38
2023-04-18T07:58:17.470Z,8.39
2023-04-18T08:01:06.469Z,8.47
2023-04-18T08:03:55.386Z,8.57
2023-04-18T08:06:42.610Z,8.86
2023-04-18T08:09:31.344Z,9.08
2023-04-18T08:12:18.618Z,9.29
2023-04-18T08:15:07.086Z,9.34
2023-04-18T08:17:54.570Z,9.04
2023-04-18T08:20:44.989Z,8.96
2023-04-18T08:23:36.381Z,9.25
2023-04-18T08:26:30.300Z,9.29
2023-04-18T08:29:19.223Z,9.32
2023-04-18T08:32:07.331Z,9.47
2023-04-18T08:34:56.339Z,9.65
2023-04-18T08:37:44.486Z,9.58
2023-04-18T08:40:31.849Z,9.59
2023-04-18T08:43:33.383Z,9.38
2023-04-18T08:46:23.849Z,9.72
2023-04-18T08:49:12.098Z,9.90
2023-04-18T08:52:04.479Z,9.71
2023-04-18T08:54:54.072Z,9.48
2023-04-18T08:57:41.839Z,9.38
2023-04-18T09:00:32.929Z,9.36
2023-04-18T09:03:37.446Z,9.42
2023-04-18T09:06:27.807Z,9.46
2023-04-18T09:09:15.736Z,9.43
2023-04-18T09:12:08.264Z,9.63
2023-04-18T09:15:09.682Z,10.00
2023-04-18T09:18:00.557Z,10.10
2023-04-18T09:20:50.057Z,10.30
2023-04-18T09:23:38.635Z,9.85
2023-04-18T09:26:34.295Z,9.65
2023-04-18T09:29:22.713Z,9.61
2023-04-18T09:32:10.473Z,9.75
2023-04-18T09:35:04.090Z,9.77
2023-04-18T09:37:55.021Z,9.81
2023-04-18T09:40:42.624Z,9.97
2023-04-18T09:43:30.274Z,10.37
2023-04-18T09:46:18.030Z,10.59
2023-04-18T09:49:05.554Z,10.48
2023-04-18T09:51:56.009Z,10.32
2023-04-18T09:54:48.324Z,10.22
2023-04-18T09:57:37.433Z,10.26
2023-04-18T10:00:27.481Z,10.36
2023-04-18T10:03:18.988Z,10.61
2023-04-18T10:06:08.239Z,10.32
2023-04-18T10:08:57.511Z,10.16
2023-04-18T10:11:46.656Z,10.17
2023-04-18T10:14:36.360Z,10.34
2023-04-18T10:17:23.860Z,10.53
2023-04-18T10:20:23.455Z,10.48
2023-04-18T10:23:36.656Z,10.89
2023-04-18T10:26:50.363Z,10.54
2023-04-18T10:29:51.413Z,10.96
2023-04-18T10:32:40.457Z,10.85
2023-04-18T10:35:27.890Z,10.99
2023-04-18T10:38:23.196Z,11.06
2023-04-18T10:41:23.212Z,11.45
2023-04-18T10:48:55.404Z,10.89
2023-04-18T10:55:55.553Z,10.95
2023-04-18T10:58:47.726Z,11.09
2023-04-18T11:01:38.107Z,11.09
2023-04-18T11:04:25.843Z,10.78
2023-04-18T11:07:14.215Z,10.88
2023-04-18T11:10:02.285Z,11.23
2023-04-18T11:12:51.911Z,11.22
2023-04-18T11:15:40.044Z,11.33
2023-04-18T11:18:39.313Z,11.00
2023-04-18T11:21:30.475Z,10.97
2023-04-18T11:24:24.503Z,11.11
2023-04-18T11:27:13.928Z,11.12
2023-04-18T11:30:02.965Z,11.33
2023-04-18T11:32:50.220Z,11.45
2023-04-18T11:35:39.038Z,11.69
2023-04-18T11:38:31.902Z,11.55
2023-04-18T11:41:19.262Z,11.38
2023-04-18T11:44:07.941Z,11.55
2023-04-18T11:46:57.215Z,12.38
2023-04-18T11:49:44.667Z,13.10
2023-04-18T11:52:33.350Z,12.46
2023-04-18T11:55:23.203Z,13.45
2023-04-18T11:58:11.431Z,13.79
2023-04-18T12:00:59.326Z,13.68
2023-04-18T12:04:02.122Z,12.85
2023-04-18T12:06:52.035Z,12.22
2023-04-18T12:09:39.432Z,11.94
2023-04-18T12:12:27.223Z,12.60
2023-04-18T12:15:17.757Z,12.34
2023-04-18T12:18:08.622Z,12.23
2023-04-18T12:21:02.452Z,12.34
2023-04-18T12:23:50.819Z,12.14
2023-04-18T12:26:47.888Z,12.27
2023-04-18T12:29:35.629Z,12.34
2023-04-18T12:32:23.243Z,12.65
2023-04-18T12:35:10.764Z,12.17
2023-04-18T12:38:01.325Z,12.32
2023-04-18T12:40:51.559Z,12.37
2023-04-18T12:43:39.201Z,12.33
2023-04-18T12:46:27.238Z,12.24
2023-04-18T12:49:14.897Z,12.51
2023-04-18T12:52:02.587Z,12.26
2023-04-18T12:54:51.697Z,12.42
2023-04-18T12:57:39.513Z,12.59
2023-04-18T13:00:29.000Z,12.90
2023-04-18T13:03:17.263Z,12.88
2023-04-18T13:06:06.057Z,12.82
2023-04-18T13:08:53.650Z,12.77
2023-04-18T13:11:45.023Z,12.70
2023-04-18T13:14:34.778Z,13.33
2023-04-18T13:17:22.462Z,13.27
2023-04-18T13:20:15.359Z,12.93
2023-04-18T13:23:03.119Z,13.28
2023-04-18T13:25:59.051Z,13.52
2023-04-18T13:28:52.616Z,13.20
2023-04-18T13:31:40.156Z,13.35
2023-04-18T13:34:29.694Z,13.77
2023-04-18T13:37:17.684Z,13.60
2023-04-18T13:40:09.702Z,13.72
2023-04-18T13:42:57.135Z,13.57
2023-04-18T13:45:46.349Z,13.26
2023-04-18T13:48:34.065Z,13.49
2023-04-18T13:51:24.053Z,13.26
2023-04-18T13:54:14.724Z,13.12
2023-04-18T13:57:11.686Z,13.06
2023-04-18T14:00:01.446Z,13.30
2023-04-18T14:02:50.453Z,13.39
2023-04-18T14:05:38.219Z,13.57
2023-04-18T14:08:28.025Z,13.13
2023-04-18T14:11:16.574Z,13.33
2023-04-18T14:14:04.343Z,13.43
2023-04-18T14:16:51.844Z,13.71
2023-04-18T14:19:41.765Z,13.55
2023-04-18T14:22:34.915Z,13.52
2023-04-18T14:25:22.838Z,13.62
2023-04-18T14:28:12.556Z,13.42
2023-04-18T14:31:06.882Z,13.31
2023-04-18T14:33:57.630Z,13.40
2023-04-18T14:36:47.000Z,13.30
2023-04-18T14:39:34.762Z,13.51
2023-04-18T14:42:23.884Z,13.46
2023-04-18T14:45:11.933Z,13.78
2023-04-18T14:48:08.796Z,13.63
2023-04-18T14:50:59.989Z,13.33
2023-04-18T14:53:48.699Z,13.41
2023-04-18T14:56:36.431Z,13.43
2023-04-18T14:59:33.061Z,13.76
2023-04-18T15:02:23.435Z,13.62
2023-04-18T15:05:14.250Z,13.54
2023-04-18T15:08:07.353Z,13.30
2023-04-18T15:10:58.457Z,13.39
2023-04-18T15:13:48.581Z,13.76
2023-04-18T15:16:43.205Z,14.86
2023-04-18T15:19:31.806Z,15.16
2023-04-18T15:22:27.073Z,15.43
2023-04-18T15:25:17.210Z,15.33
2023-04-18T15:28:07.157Z,15.61
2023-04-18T15:30:54.705Z,15.49
2023-04-18T15:33:41.984Z,14.95
2023-04-18T15:36:31.903Z,14.84
2023-04-18T15:39:24.125Z,15.63
2023-04-18T15:42:15.048Z,15.17
2023-04-18T15:45:08.133Z,15.41
2023-04-18T15:47:55.908Z,16.04
2023-04-18T15:50:49.749Z,15.24
2023-04-18T15:53:44.260Z,15.07
2023-04-18T15:56:33.647Z,15.04
2023-04-18T15:59:26.854Z,14.78
2023-04-18T16:02:18.902Z,14.95
2023-04-18T16:05:11.716Z,14.79
2023-04-18T16:08:09.721Z,14.53
2023-04-18T16:10:57.101Z,14.51
2023-04-18T16:13:56.777Z,14.62
2023-04-18T16:16:45.237Z,15.24
2023-04-18T16:19:36.321Z,15.23
2023-04-18T16:22:25.009Z,16.19
2023-04-18T16:25:17.416Z,15.88
2023-04-18T16:28:06.388Z,15.60
2023-04-18T16:31:00.023Z,15.21
2023-04-18T16:33:49.175Z,15.20
2023-04-18T16:36:42.583Z,14.97
2023-04-18T16:39:30.932Z,14.85
2023-04-18T16:42:18.924Z,15.39
2023-04-18T16:45:12.812Z,15.68
2023-04-18T16:48:02.975Z,15.99
2023-04-18T16:50:50.711Z,16.03
2023-04-18T16:53:42.789Z,15.94
2023-04-18T16:56:37.032Z,15.68
2023-04-18T16:59:24.729Z,15.79
2023-04-18T17:02:18.835Z,15.30
2023-04-18T17:05:07.902Z,15.45
2023-04-18T17:07:56.113Z,15.15
2023-04-18T17:10:45.828Z,14.89
2023-04-18T17:13:33.168Z,14.98
2023-04-18T17:16:21.337Z,15.03
2023-04-18T17:19:09.220Z,15.03
2023-04-18T17:21:56.765Z,14.96
2023-04-18T17:24:44.066Z,15.29
2023-04-18T17:27:32.860Z,15.26
2023-04-18T17:30:20.490Z,14.81
2023-04-18T17:33:07.997Z,14.29
2023-04-18T17:35:58.102Z,14.17
2023-04-18T17:38:50.819Z,14.08
2023-04-18T17:41:39.514Z,14.05
2023-04-18T17:44:30.021Z,13.92
2023-04-18T17:47:19.179Z,13.82
2023-04-18T17:50:07.686Z,13.80
2023-04-18T17:52:55.558Z,13.67
2023-04-18T17:55:48.834Z,13.52
2023-04-18T17:58:45.386Z,13.38
2023-04-18T18:01:42.192Z,13.28
2023-04-18T18:04:29.900Z,13.27
2023-04-18T18:07:17.688Z,13.23
2023-04-18T18:10:22.361Z,13.24
2023-04-18T18:13:22.726Z,13.26
2023-04-18T18:16:10.704Z,13.18
2023-04-18T18:19:00.164Z,13.15
2023-04-18T18:21:47.643Z,13.13
2023-04-18T18:24:36.913Z,13.04
2023-04-18T18:27:24.319Z,12.97
2023-04-18T18:30:15.259Z,12.89
2023-04-18T18:33:05.876Z,12.77
2023-04-18T18:35:58.545Z,12.64
2023-04-18T18:38:46.220Z,12.60
2023-04-18T18:41:37.097Z,12.55
2023-04-18T18:44:25.162Z,12.48
2023-04-18T18:47:12.960Z,12.41
2023-04-18T18:50:05.848Z,12.31
2023-04-18T18:52:55.841Z,12.26
2023-04-18T18:55:45.594Z,12.19
2023-04-18T18:58:33.449Z,12.13
2023-04-18T19:01:20.914Z,12.08
2023-04-18T19:04:13.809Z,12.02
2023-04-18T19:07:01.357Z,11.98
2023-04-18T19:09:53.734Z,11.88
2023-04-18T19:12:41.305Z,11.85
2023-04-18T19:15:32.492Z,11.75
2023-04-18T19:18:20.260Z,11.67
2023-04-18T19:21:09.954Z,11.65
2023-04-18T19:24:06.602Z,11.58
2023-04-18T19:26:55.642Z,11.57
2023-04-18T19:29:46.020Z,11.52
2023-04-18T19:32:36.028Z,11.46
2023-04-18T19:35:29.686Z,11.37
2023-04-18T19:38:16.932Z,11.30
2023-04-18T19:41:04.286Z,11.22
2023-04-18T19:43:54.242Z,11.19
2023-04-18T19:46:42.681Z,11.17
2023-04-18T19:49:31.772Z,11.11
2023-04-18T19:52:22.877Z,11.15
2023-04-18T19:55:11.546Z,11.18
2023-04-18T19:58:07.384Z,11.11
2023-04-18T20:00:59.027Z,11.07
2023-04-18T20:03:50.025Z,11.04
2023-04-18T20:06:42.336Z,10.95
2023-04-18T20:09:34.152Z,10.97
2023-04-18T20:12:26.377Z,10.97
2023-04-18T20:15:25.692Z,10.89
2023-04-18T20:18:15.119Z,10.88
2023-04-18T20:21:09.284Z,10.82
2023-04-18T20:23:58.724Z,10.74
2023-04-18T20:26:46.692Z,10.77
2023-04-18T20:29:34.016Z,10.71
2023-04-18T20:32:21.784Z,10.66
2023-04-18T20:35:10.953Z,10.64
2023-04-18T20:38:00.307Z,10.62
2023-04-18T20:40:51.703Z,10.56
2023-04-18T20:43:40.698Z,10.52
2023-04-18T20:46:31.276Z,10.51
2023-04-18T20:49:18.793Z,10.50
2023-04-18T20:52:09.722Z,10.42
2023-04-18T20:54:57.411Z,10.41
2023-04-18T20:57:45.084Z,10.40
2023-04-18T21:00:32.835Z,10.39
2023-04-18T21:03:20.794Z,10.36
2023-04-18T21:06:14.198Z,10.23
2023-04-18T21:09:03.159Z,10.19
2023-04-18T21:11:50.502Z,10.17
2023-04-18T21:14:39.813Z,10.19
2023-04-18T21:17:27.487Z,10.18
2023-04-18T21:20:14.773Z,10.14
2023-04-18T21:23:02.544Z,10.08
2023-04-18T21:25:53.410Z,10.10
2023-04-18T21:28:57.543Z,10.14
2023-04-18T21:31:47.621Z,10.15
2023-04-18T21:34:35.224Z,10.13
2023-04-18T21:37:25.040Z,10.05
2023-04-18T21:40:13.233Z,10.03
2023-04-18T21:43:02.265Z,10.04
2023-04-18T21:45:49.722Z,9.99
2023-04-18T21:48:37.320Z,9.97
2023-04-18T21:51:24.791Z,9.95
2023-04-18T21:54:12.653Z,9.94
2023-04-18T21:57:00.141Z,9.87
2023-04-18T21:59:49.057Z,9.91
2023-04-18T22:02:36.612Z,9.89
2023-04-18T22:05:28.322Z,9.84
2023-04-18T22:08:16.148Z,9.83
2023-04-18T22:11:04.981Z,9.78
2023-04-18T22:13:54.223Z,9.80
2023-04-18T22:16:45.098Z,9.81
2023-04-18T22:19:33.338Z,9.73
2023-04-18T22:22:23.104Z,9.71
2023-04-18T22:25:11.718Z,9.70
2023-04-18T22:27:59.206Z,9.70
2023-04-18T22:30:46.691Z,9.62
2023-04-18T22:33:37.624Z,9.63
2023-04-18T22:36:27.630Z,9.60
2023-04-18T22:39:15.075Z,9.52
2023-04-18T22:42:02.703Z,9.60
2023-04-18T22:44:50.616Z,9.56
2023-04-18T22:47:38.094Z,9.54
2023-04-18T22:50:27.421Z,9.50
2023-04-18T22:53:15.194Z,9.46
2023-04-18T22:56:02.918Z,9.47
2023-04-18T22:58:51.030Z,9.48
2023-04-18T23:01:38.575Z,9.49
2023-04-18T23:04:30.255Z,9.53
2023-04-18T23:07:19.038Z,9.43
2023-04-18T23:10:07.871Z,9.40
2023-04-18T23:12:55.290Z,9.44
2023-04-18T23:15:42.683Z,9.41
2023-04-18T23:18:30.335Z,9.41
2023-04-18T23:21:18.628Z,9.40
2023-04-18T23:24:08.016Z,9.36
2023-04-18T23:26:55.514Z,9.35
2023-04-18T23:29:42.707Z,9.32
2023-04-18T23:32:30.362Z,9.28
2023-04-18T23:35:18.039Z,9.26
2023-04-18T23:38:08.426Z,9.24
2023-04-18T23:41:00.093Z,9.20
2023-04-18T23:43:47.382Z,9.14
2023-04-18T23:46:36.353Z,9.09
2023-04-18T23:49:28.161Z,9.11
2023-04-18T23:52:17.969Z,9.11
2023-04-18T23:55:06.314Z,9.02
2023-04-18T23:57:55.231Z,9.01
